Time;durP1;ratioP1;P1;durP2;ratioP2;P2;SDS_P1;SDS_P2;PMS_P1;PMS_P2;Temp;Humidity;BMP_temperature;BMP_pressure;BME280_temperature;BME280_humidity;BME280_pressure;Samples;Min_cycle;Max_cycle;Signal;HPM_P1;HPM_P2
2022/12/02 00:00:51;;;;;;;86.33;20.00;;;;;;;;;;5012317;28;20242;-74
2022/12/02 00:03:20;;;;;;;85.22;20.00;;;;;;;;;;5013251;28;20492;-74
2022/12/02 00:05:48;;;;;;;82.18;20.17;;;;;;;;;;5013282;28;20686;-74
2022/12/02 00:08:18;;;;;;;84.53;21.13;;;;;;;;;;5013066;28;20232;-73
2022/12/02 00:10:45;;;;;;;83.45;20.48;;;;;;;;;;5012570;28;20638;-73
2022/12/02 00:13:15;;;;;;;87.50;20.60;;;;;;;;;;5012855;28;20206;-74
2022/12/02 00:15:43;;;;;;;82.67;19.30;;;;;;;;;;5013311;28;20543;-74
2022/12/02 00:18:13;;;;;;;86.88;21.02;;;;;;;;;;5012652;28;20646;-74
2022/12/02 00:20:40;;;;;;;84.47;21.47;;;;;;;;;;5012180;28;20253;-74
2022/12/02 00:23:07;;;;;;;83.23;21.57;;;;;;;;;;5012771;28;20495;-74
2022/12/02 00:25:34;;;;;;;82.83;20.97;;;;;;;;;;5012568;28;20544;-74
2022/12/02 00:28:02;;;;;;;82.72;18.98;;;;;;;;;;5012610;28;20492;-74
2022/12/02 00:30:29;;;;;;;81.13;19.50;;;;;;;;;;5011980;28;20232;-74
2022/12/02 00:32:56;;;;;;;80.72;18.52;;;;;;;;;;5012736;28;20308;-74
2022/12/02 00:35:25;;;;;;;81.53;18.67;;;;;;;;;;5012536;28;20278;-74
2022/12/02 00:37:52;;;;;;;89.63;21.97;;;;;;;;;;5012538;28;20325;-74
2022/12/02 00:40:20;;;;;;;82.83;21.17;;;;;;;;;;5028260;28;20583;-75
2022/12/02 00:42:47;;;;;;;84.95;19.95;;;;;;;;;;5032584;28;20542;-74
2022/12/02 00:48:00;;;;;;;85.03;19.85;;;;;;;;;;5031844;28;20823;-74
2022/12/02 00:50:28;;;;;;;87.70;22.43;;;;;;;;;;5031340;28;20278;-74
2022/12/02 00:52:56;;;;;;;87.05;22.40;;;;;;;;;;5031917;28;20480;-74
2022/12/02 00:55:23;;;;;;;88.13;21.75;;;;;;;;;;5032118;28;20215;-74
2022/12/02 00:57:50;;;;;;;85.53;20.73;;;;;;;;;;5031812;28;20732;-74
2022/12/02 01:00:17;;;;;;;84.57;20.80;;;;;;;;;;5031016;28;20523;-74
2022/12/02 01:02:45;;;;;;;78.63;18.65;;;;;;;;;;5031910;28;20254;-74
2022/12/02 01:05:12;;;;;;;80.75;19.60;;;;;;;;;;5031865;28;20210;-74
2022/12/02 01:07:40;;;;;;;84.05;20.75;;;;;;;;;;5031768;28;20248;-73
2022/12/02 01:10:08;;;;;;;85.20;19.63;;;;;;;;;;5030945;28;20317;-73
2022/12/02 01:12:35;;;;;;;83.53;21.20;;;;;;;;;;5031857;28;20216;-74
2022/12/02 01:15:02;;;;;;;85.20;20.15;;;;;;;;;;5031798;28;20494;-74
2022/12/02 01:17:29;;;;;;;81.97;19.15;;;;;;;;;;5031732;28;20228;-74
2022/12/02 01:19:56;;;;;;;80.45;19.80;;;;;;;;;;5030769;28;20382;-74
2022/12/02 01:22:24;;;;;;;84.07;20.60;;;;;;;;;;5031920;28;20293;-74
2022/12/02 01:24:52;;;;;;;84.28;18.65;;;;;;;;;;5031843;28;20686;-74
2022/12/02 01:27:20;;;;;;;82.68;21.27;;;;;;;;;;5031646;28;20293;-73
2022/12/02 01:29:47;;;;;;;89.87;20.97;;;;;;;;;;5030768;28;20661;-74
2022/12/02 01:32:14;;;;;;;84.27;19.90;;;;;;;;;;5031607;28;21023;-73
2022/12/02 01:34:41;;;;;;;85.60;20.25;;;;;;;;;;5031850;28;20987;-74
2022/12/02 01:37:08;;;;;;;84.80;20.30;;;;;;;;;;5031667;28;20229;-74
2022/12/02 01:39:35;;;;;;;86.05;20.98;;;;;;;;;;5030888;28;20317;-74
2022/12/02 01:42:04;;;;;;;85.67;20.07;;;;;;;;;;5031933;28;20556;-74
2022/12/02 01:44:32;;;;;;;83.72;19.70;;;;;;;;;;5031597;28;20548;-74
2022/12/02 01:46:59;;;;;;;82.28;18.17;;;;;;;;;;5031397;28;20285;-74
2022/12/02 01:49:27;;;;;;;86.13;19.67;;;;;;;;;;5030567;28;20669;-74
2022/12/02 01:51:54;;;;;;;84.05;19.88;;;;;;;;;;5031803;28;20300;-73
2022/12/02 01:54:21;;;;;;;83.63;19.85;;;;;;;;;;5031430;28;20777;-74
2022/12/02 01:56:48;;;;;;;85.15;20.20;;;;;;;;;;5031330;28;20236;-74
2022/12/02 01:59:18;;;;;;;81.35;18.73;;;;;;;;;;5031036;28;20229;-74
2022/12/02 02:01:45;;;;;;;84.78;20.05;;;;;;;;;;5035149;28;20210;-74
2022/12/02 02:04:12;;;;;;;80.28;19.38;;;;;;;;;;5035355;28;20213;-74
2022/12/02 02:06:44;;;;;;;84.57;20.27;;;;;;;;;;5035228;28;20202;-74
2022/12/02 02:09:11;;;;;;;81.55;19.15;;;;;;;;;;5034309;28;20283;-74
2022/12/02 02:11:39;;;;;;;83.90;19.25;;;;;;;;;;5035386;28;20729;-74
2022/12/02 02:14:07;;;;;;;85.00;20.80;;;;;;;;;;5034876;28;20216;-74
2022/12/02 02:16:36;;;;;;;85.13;20.20;;;;;;;;;;5035084;28;20893;-74
2022/12/02 02:19:04;;;;;;;88.65;20.25;;;;;;;;;;5034186;28;20240;-74
2022/12/02 02:21:33;;;;;;;85.50;20.35;;;;;;;;;;5034762;28;20718;-74
2022/12/02 02:24:02;;;;;;;88.22;20.95;;;;;;;;;;5034837;28;20209;-74
2022/12/02 02:26:29;;;;;;;81.22;19.55;;;;;;;;;;5034636;28;20685;-74
2022/12/02 02:28:56;;;;;;;84.80;19.23;;;;;;;;;;5033982;28;20240;-74
2022/12/02 02:31:23;;;;;;;79.60;18.23;;;;;;;;;;5034793;28;20296;-74
2022/12/02 02:33:50;;;;;;;83.32;20.73;;;;;;;;;;5034742;28;20249;-74
2022/12/02 02:36:17;;;;;;;84.97;18.58;;;;;;;;;;5030515;28;20216;-74
2022/12/02 02:38:45;;;;;;;83.70;18.77;;;;;;;;;;5033475;28;20279;-74
2022/12/02 02:41:13;;;;;;;83.30;20.03;;;;;;;;;;5034385;28;20987;-74
2022/12/02 02:43:41;;;;;;;82.38;18.52;;;;;;;;;;5034551;28;20887;-74
2022/12/02 02:46:08;;;;;;;81.95;19.80;;;;;;;;;;5034347;28;20301;-74
2022/12/02 02:48:36;;;;;;;81.05;18.40;;;;;;;;;;5033408;28;20309;-73
2022/12/02 02:51:03;;;;;;;83.15;18.50;;;;;;;;;;5033818;28;20202;-74
2022/12/02 02:53:31;;;;;;;80.37;19.60;;;;;;;;;;5034411;28;20297;-74
2022/12/02 02:55:58;;;;;;;79.43;18.02;;;;;;;;;;5034312;28;20886;-74
2022/12/02 02:58:27;;;;;;;82.88;19.55;;;;;;;;;;5034024;28;20253;-74
2022/12/02 03:00:56;;;;;;;80.85;19.20;;;;;;;;;;5033764;28;20206;-74
2022/12/02 03:03:24;;;;;;;85.05;19.92;;;;;;;;;;5034050;28;20241;-74
2022/12/02 03:05:52;;;;;;;83.30;19.10;;;;;;;;;;5034201;28;20249;-74
2022/12/02 03:08:20;;;;;;;85.20;20.25;;;;;;;;;;5034037;28;20638;-74
2022/12/02 03:10:48;;;;;;;81.45;18.25;;;;;;;;;;5033208;28;20638;-74
2022/12/02 03:13:15;;;;;;;83.40;20.23;;;;;;;;;;5033877;28;20702;-74
2022/12/02 03:15:44;;;;;;;82.82;20.75;;;;;;;;;;5033861;28;20482;-73
2022/12/02 03:18:11;;;;;;;83.28;17.55;;;;;;;;;;5033533;28;20751;-74
2022/12/02 03:20:39;;;;;;;81.70;17.67;;;;;;;;;;5033179;28;20233;-74
2022/12/02 03:23:06;;;;;;;82.25;18.10;;;;;;;;;;5033930;28;20213;-74
2022/12/02 03:25:33;;;;;;;79.70;18.33;;;;;;;;;;5033706;28;20206;-74
2022/12/02 03:28:00;;;;;;;84.37;19.03;;;;;;;;;;5033610;28;20256;-74
2022/12/02 03:30:28;;;;;;;79.00;18.60;;;;;;;;;;5032850;28;20915;-74
2022/12/02 03:32:56;;;;;;;82.32;19.45;;;;;;;;;;5033370;28;20741;-74
2022/12/02 03:35:23;;;;;;;81.85;18.15;;;;;;;;;;5033897;28;20214;-74
2022/12/02 03:37:51;;;;;;;80.72;20.00;;;;;;;;;;5033511;28;20236;-74
2022/12/02 03:40:18;;;;;;;80.13;18.58;;;;;;;;;;5032474;28;20272;-74
2022/12/02 03:42:45;;;;;;;80.47;17.05;;;;;;;;;;5033398;28;20213;-74
2022/12/02 03:45:13;;;;;;;81.03;18.50;;;;;;;;;;5033132;28;20257;-74
2022/12/02 03:47:40;;;;;;;79.97;18.40;;;;;;;;;;5033655;28;20539;-74
2022/12/02 03:50:09;;;;;;;80.65;17.70;;;;;;;;;;5032236;28;20687;-73
2022/12/02 03:52:37;;;;;;;86.30;20.23;;;;;;;;;;5033291;28;20215;-74
2022/12/02 03:55:05;;;;;;;85.50;19.50;;;;;;;;;;5033142;28;20259;-74
2022/12/02 03:57:33;;;;;;;85.57;18.93;;;;;;;;;;5032912;28;20799;-74
2022/12/02 04:00:00;;;;;;;81.95;18.77;;;;;;;;;;5031977;28;21023;-74
2022/12/02 04:02:27;;;;;;;77.07;16.73;;;;;;;;;;5033132;28;20300;-74
2022/12/02 04:04:55;;;;;;;83.43;18.10;;;;;;;;;;5033061;28;20295;-74
2022/12/02 04:07:23;;;;;;;81.10;18.33;;;;;;;;;;5032985;28;20298;-74
2022/12/02 04:09:50;;;;;;;80.50;17.95;;;;;;;;;;5031929;28;20320;-74
2022/12/02 04:12:17;;;;;;;78.95;18.30;;;;;;;;;;5033150;28;20581;-74
2022/12/02 04:14:44;;;;;;;83.28;19.25;;;;;;;;;;5032691;28;20212;-74
2022/12/02 04:17:12;;;;;;;83.57;19.58;;;;;;;;;;5032575;28;20241;-74
2022/12/02 04:19:39;;;;;;;82.13;18.77;;;;;;;;;;5031511;28;20748;-74
2022/12/02 04:22:06;;;;;;;80.47;19.20;;;;;;;;;;5032067;28;20242;-73
2022/12/02 04:24:35;;;;;;;90.32;22.10;;;;;;;;;;5032975;28;20297;-74
2022/12/02 04:27:02;;;;;;;80.97;18.42;;;;;;;;;;5032395;28;20321;-74
2022/12/02 04:29:29;;;;;;;82.72;18.27;;;;;;;;;;5031837;28;20313;-73
2022/12/02 04:31:56;;;;;;;86.40;18.75;;;;;;;;;;5032547;28;20209;-74
2022/12/02 04:34:23;;;;;;;85.60;20.35;;;;;;;;;;5032322;28;20223;-74
2022/12/02 04:36:50;;;;;;;87.82;17.80;;;;;;;;;;5032340;28;20305;-74
2022/12/02 04:39:17;;;;;;;82.65;18.40;;;;;;;;;;5031274;28;20246;-74
2022/12/02 04:41:46;;;;;;;86.43;20.27;;;;;;;;;;5032391;28;20239;-73
2022/12/02 04:44:13;;;;;;;82.57;19.90;;;;;;;;;;5032277;28;20204;-74
2022/12/02 04:46:40;;;;;;;79.93;18.15;;;;;;;;;;5032366;28;20558;-74
2022/12/02 04:49:07;;;;;;;83.00;20.30;;;;;;;;;;5031163;28;20244;-74
2022/12/02 04:51:34;;;;;;;84.20;20.60;;;;;;;;;;5032046;28;20214;-74
2022/12/02 04:54:01;;;;;;;79.35;17.77;;;;;;;;;;5031894;28;20296;-74
2022/12/02 04:56:29;;;;;;;83.07;20.33;;;;;;;;;;5032216;28;20220;-74
2022/12/02 04:58:57;;;;;;;82.00;19.45;;;;;;;;;;5031441;28;20657;-73
2022/12/02 05:01:24;;;;;;;81.03;18.95;;;;;;;;;;5032120;28;20209;-74
2022/12/02 05:03:51;;;;;;;82.72;19.45;;;;;;;;;;5032012;28;20255;-74
2022/12/02 05:06:18;;;;;;;83.22;18.98;;;;;;;;;;5031899;28;20297;-74
2022/12/02 05:08:46;;;;;;;87.53;19.63;;;;;;;;;;5030904;28;20399;-74
2022/12/02 05:11:13;;;;;;;82.00;18.70;;;;;;;;;;5031791;28;20315;-74
2022/12/02 05:13:40;;;;;;;86.38;18.55;;;;;;;;;;5031831;28;20248;-74
2022/12/02 05:16:09;;;;;;;81.75;17.92;;;;;;;;;;5032030;28;20661;-74
2022/12/02 05:18:36;;;;;;;85.00;19.98;;;;;;;;;;5030994;28;20229;-73
2022/12/02 05:21:03;;;;;;;88.20;19.35;;;;;;;;;;5031711;28;20304;-74
2022/12/02 05:23:30;;;;;;;82.85;20.10;;;;;;;;;;5031887;28;20258;-74
2022/12/02 05:25:57;;;;;;;87.93;19.85;;;;;;;;;;5031762;28;20704;-74
2022/12/02 05:28:24;;;;;;;85.20;19.70;;;;;;;;;;5031483;28;20241;-74
2022/12/02 05:30:52;;;;;;;83.55;19.60;;;;;;;;;;5031127;28;20210;-74
2022/12/02 05:33:20;;;;;;;82.68;18.98;;;;;;;;;;5031689;28;20244;-74
2022/12/02 05:35:47;;;;;;;82.05;19.92;;;;;;;;;;5034791;28;20205;-73
2022/12/02 05:38:14;;;;;;;82.53;18.92;;;;;;;;;;5035667;28;20324;-74
2022/12/02 05:40:41;;;;;;;82.22;18.90;;;;;;;;;;5035014;28;20402;-74
2022/12/02 05:43:15;;;;;;;83.93;19.20;;;;;;;;;;5035585;28;20212;-74
2022/12/02 05:45:42;;;;;;;83.75;18.13;;;;;;;;;;5035639;28;20212;-73
2022/12/02 05:48:11;;;;;;;84.90;19.30;;;;;;;;;;5035042;28;20259;-74
2022/12/02 05:50:40;;;;;;;85.30;20.70;;;;;;;;;;5033584;28;20677;-73
2022/12/02 05:53:09;;;;;;;86.03;20.45;;;;;;;;;;5034235;28;20497;-74
2022/12/02 05:55:37;;;;;;;85.88;22.00;;;;;;;;;;5034259;28;20657;-73
2022/12/02 05:58:07;;;;;;;84.97;21.20;;;;;;;;;;5033906;28;20669;-74
2022/12/02 06:00:34;;;;;;;88.13;21.35;;;;;;;;;;5033155;28;20670;-74
2022/12/02 06:03:03;;;;;;;83.82;20.60;;;;;;;;;;5033757;28;20730;-74
2022/12/02 06:05:31;;;;;;;84.35;20.20;;;;;;;;;;5034037;28;20209;-74
2022/12/02 06:08:02;;;;;;;87.93;21.45;;;;;;;;;;5033872;28;20232;-74
2022/12/02 06:10:30;;;;;;;88.80;21.45;;;;;;;;;;5032794;28;20627;-73
2022/12/02 06:12:58;;;;;;;88.82;21.88;;;;;;;;;;5033671;28;20645;-73
2022/12/02 06:15:26;;;;;;;88.60;21.77;;;;;;;;;;5033627;28;20272;-74
2022/12/02 06:17:53;;;;;;;88.25;22.08;;;;;;;;;;5033511;28;20230;-74
2022/12/02 06:20:24;;;;;;;90.70;22.50;;;;;;;;;;5032947;28;20383;-74
2022/12/02 06:22:52;;;;;;;87.07;21.35;;;;;;;;;;5034091;28;20244;-74
2022/12/02 06:25:23;;;;;;;90.18;21.92;;;;;;;;;;5033531;28;20254;-74
2022/12/02 06:27:51;;;;;;;87.88;22.40;;;;;;;;;;5033534;28;20306;-74
2022/12/02 06:30:18;;;;;;;92.53;22.50;;;;;;;;;;5032882;28;20261;-74
2022/12/02 06:32:51;;;;;;;87.50;21.25;;;;;;;;;;5033383;28;20213;-74
2022/12/02 06:35:21;;;;;;;90.82;21.65;;;;;;;;;;5033738;28;20312;-74
2022/12/02 06:37:49;;;;;;;89.80;21.48;;;;;;;;;;5033316;28;20213;-74
2022/12/02 06:40:23;;;;;;;87.47;23.13;;;;;;;;;;5032393;28;20324;-74
2022/12/02 06:42:50;;;;;;;90.45;23.02;;;;;;;;;;5033046;28;20209;-73
2022/12/02 06:45:21;;;;;;;89.90;22.35;;;;;;;;;;5032822;28;20298;-73
2022/12/02 06:48:09;;;;;;;91.84;22.78;;;;;;;;;;4994412;28;1115087;-73
2022/12/02 06:50:38;;;;;;;87.15;21.60;;;;;;;;;;5030162;28;20272;-74
2022/12/02 06:53:11;;;;;;;103.15;22.90;;;;;;;;;;5034734;28;20299;-73
2022/12/02 06:55:40;;;;;;;85.68;21.80;;;;;;;;;;5034122;28;20216;-73
2022/12/02 06:58:17;;;;;;;91.53;21.80;;;;;;;;;;5033998;28;20225;-74
2022/12/02 07:00:44;;;;;;;85.93;21.05;;;;;;;;;;5033454;28;20319;-73
2022/12/02 07:03:17;;;;;;;94.10;24.33;;;;;;;;;;5033971;28;20305;-74
2022/12/02 07:05:44;;;;;;;89.63;21.65;;;;;;;;;;5034222;28;20299;-74
2022/12/02 07:08:11;;;;;;;97.30;22.10;;;;;;;;;;5034036;28;20296;-74
2022/12/02 07:10:40;;;;;;;90.15;22.48;;;;;;;;;;5033157;28;20327;-73
2022/12/02 07:13:10;;;;;;;94.25;23.33;;;;;;;;;;5033859;28;20688;-74
2022/12/02 07:15:37;;;;;;;95.88;22.17;;;;;;;;;;5033748;28;20210;-74
2022/12/02 07:18:12;;;;;;;88.13;22.25;;;;;;;;;;5033924;28;20225;-74
2022/12/02 07:20:40;;;;;;;91.47;22.48;;;;;;;;;;5033198;28;20278;-74
2022/12/02 07:23:16;;;;;;;87.70;22.65;;;;;;;;;;5033696;28;20241;-73
2022/12/02 07:25:45;;;;;;;91.13;24.33;;;;;;;;;;5033698;28;20217;-73
2022/12/02 07:28:21;;;;;;;90.22;21.92;;;;;;;;;;5033478;28;20240;-74
2022/12/02 07:30:51;;;;;;;89.35;22.42;;;;;;;;;;5032965;28;20229;-74
2022/12/02 07:33:19;;;;;;;91.43;23.17;;;;;;;;;;5033565;28;20241;-74
2022/12/02 07:35:46;;;;;;;89.70;23.35;;;;;;;;;;5033502;28;20255;-73
2022/12/02 07:38:13;;;;;;;90.05;22.35;;;;;;;;;;5033368;28;20316;-74
2022/12/02 07:40:41;;;;;;;95.78;22.90;;;;;;;;;;5032612;28;20316;-74
2022/12/02 07:43:10;;;;;;;90.50;23.63;;;;;;;;;;5033592;28;20213;-73
2022/12/02 07:45:37;;;;;;;85.72;22.15;;;;;;;;;;5033283;28;20745;-74
2022/12/02 07:48:05;;;;;;;90.07;21.70;;;;;;;;;;5033107;28;20312;-74
2022/12/02 07:50:32;;;;;;;91.90;23.08;;;;;;;;;;5032066;28;20325;-72
2022/12/02 07:52:59;;;;;;;97.35;23.55;;;;;;;;;;5032816;28;20232;-75
2022/12/02 07:55:26;;;;;;;92.30;23.60;;;;;;;;;;5033079;28;20214;-74
2022/12/02 07:57:54;;;;;;;88.75;23.65;;;;;;;;;;5032452;28;20206;-74
2022/12/02 08:00:23;;;;;;;91.25;22.20;;;;;;;;;;5032320;28;20333;-74
2022/12/02 08:02:50;;;;;;;91.72;23.40;;;;;;;;;;5033332;28;20256;-73
2022/12/02 08:05:18;;;;;;;91.60;22.55;;;;;;;;;;5032966;28;20249;-74
2022/12/02 08:07:45;;;;;;;87.63;22.75;;;;;;;;;;5032781;28;20295;-74
2022/12/02 08:10:12;;;;;;;89.32;21.73;;;;;;;;;;5032237;28;20329;-74
2022/12/02 08:12:41;;;;;;;92.30;23.20;;;;;;;;;;5032955;28;20207;-74
2022/12/02 08:15:09;;;;;;;91.73;22.77;;;;;;;;;;5032701;28;20256;-73
2022/12/02 08:17:37;;;;;;;93.40;23.73;;;;;;;;;;5032637;28;20448;-74
2022/12/02 08:20:05;;;;;;;92.07;22.17;;;;;;;;;;5031625;28;20243;-74
2022/12/02 08:22:32;;;;;;;89.63;21.67;;;;;;;;;;5032467;28;20539;-74
2022/12/02 08:24:59;;;;;;;89.45;22.67;;;;;;;;;;5032730;28;20583;-74
2022/12/02 08:27:26;;;;;;;87.03;21.33;;;;;;;;;;5032475;28;20698;-75
2022/12/02 08:29:54;;;;;;;85.70;20.23;;;;;;;;;;5031711;28;20311;-75
2022/12/02 08:32:21;;;;;;;88.53;22.30;;;;;;;;;;5032432;28;20213;-74
2022/12/02 08:34:50;;;;;;;87.43;21.65;;;;;;;;;;5032292;28;20223;-75
2022/12/02 08:37:17;;;;;;;98.40;24.10;;;;;;;;;;5032594;28;20302;-74
2022/12/02 08:39:44;;;;;;;85.65;20.98;;;;;;;;;;5031565;28;20229;-76
2022/12/02 08:42:11;;;;;;;86.10;22.00;;;;;;;;;;5032349;28;20309;-76
2022/12/02 08:44:38;;;;;;;88.53;22.50;;;;;;;;;;5033338;28;20456;-77
2022/12/02 08:47:05;;;;;;;87.25;20.27;;;;;;;;;;5035050;28;20460;-78
2022/12/02 08:49:33;;;;;;;86.90;21.48;;;;;;;;;;5035436;28;20276;-79
2022/12/02 08:52:01;;;;;;;86.45;21.10;;;;;;;;;;5036570;28;20627;-79
2022/12/02 08:54:28;;;;;;;85.40;19.77;;;;;;;;;;5036176;28;20237;-79
2022/12/02 08:56:55;;;;;;;83.15;19.13;;;;;;;;;;5036597;28;20224;-78
2022/12/02 08:59:23;;;;;;;87.85;18.85;;;;;;;;;;5035704;28;20243;-78
2022/12/02 09:01:50;;;;;;;83.90;19.40;;;;;;;;;;5036089;28;20241;-77
2022/12/02 09:04:17;;;;;;;80.15;17.10;;;;;;;;;;5036138;28;20241;-78
2022/12/02 09:06:44;;;;;;;81.17;18.60;;;;;;;;;;5035304;28;20305;-77
2022/12/02 09:09:13;;;;;;;84.65;18.25;;;;;;;;;;5033927;28;20555;-78
2022/12/02 09:11:40;;;;;;;83.95;21.10;;;;;;;;;;5035185;28;20213;-77
2022/12/02 09:14:07;;;;;;;80.85;18.45;;;;;;;;;;5035322;28;20293;-77
2022/12/02 09:16:34;;;;;;;82.53;19.43;;;;;;;;;;5034426;28;20404;-76
2022/12/02 09:19:01;;;;;;;83.85;17.15;;;;;;;;;;5032486;28;21047;-77
2022/12/02 09:21:28;;;;;;;79.90;16.80;;;;;;;;;;5033917;28;20241;-77
2022/12/02 09:23:55;;;;;;;80.88;18.80;;;;;;;;;;5033779;28;20293;-77
2022/12/02 09:26:24;;;;;;;79.78;18.45;;;;;;;;;;5033732;28;20641;-78
2022/12/02 09:28:51;;;;;;;78.73;18.23;;;;;;;;;;5032756;28;20692;-78
2022/12/02 09:31:18;;;;;;;77.87;17.73;;;;;;;;;;5033592;28;20552;-76
2022/12/02 09:33:45;;;;;;;78.22;16.88;;;;;;;;;;5033304;28;20456;-77
2022/12/02 09:36:12;;;;;;;85.27;24.53;;;;;;;;;;5033101;28;20238;-76
2022/12/02 09:38:40;;;;;;;82.50;20.17;;;;;;;;;;5032415;28;20504;-77
2022/12/02 09:41:07;;;;;;;79.07;17.92;;;;;;;;;;5033132;28;20494;-76
2022/12/02 09:43:36;;;;;;;76.50;16.93;;;;;;;;;;5032719;28;20212;-77
2022/12/02 09:46:04;;;;;;;76.97;17.50;;;;;;;;;;5032735;28;20511;-76
2022/12/02 09:48:31;;;;;;;79.80;17.10;;;;;;;;;;5031898;28;20979;-76
2022/12/02 09:50:59;;;;;;;81.10;16.75;;;;;;;;;;5032319;28;20521;-77
2022/12/02 09:53:28;;;;;;;81.38;16.48;;;;;;;;;;5032002;28;20211;-77
2022/12/02 09:55:56;;;;;;;80.13;16.33;;;;;;;;;;5031924;28;20243;-76
2022/12/02 09:58:23;;;;;;;82.53;16.83;;;;;;;;;;5032090;28;20289;-76
2022/12/02 10:00:52;;;;;;;79.63;17.53;;;;;;;;;;5031087;28;20222;-77
2022/12/02 10:03:22;;;;;;;78.87;16.40;;;;;;;;;;5031672;28;20448;-76
2022/12/02 10:05:50;;;;;;;78.37;17.33;;;;;;;;;;5031654;28;20500;-76
2022/12/02 10:08:19;;;;;;;74.68;15.75;;;;;;;;;;5031366;28;20548;-76
2022/12/02 10:10:46;;;;;;;75.50;16.90;;;;;;;;;;5030677;28;20269;-76
2022/12/02 10:13:14;;;;;;;75.93;15.45;;;;;;;;;;5031970;28;20965;-76
2022/12/02 10:15:42;;;;;;;78.05;15.77;;;;;;;;;;5033003;28;20252;-77
2022/12/02 10:18:13;;;;;;;79.10;17.67;;;;;;;;;;5032778;28;20245;-77
2022/12/02 10:20:41;;;;;;;76.93;16.23;;;;;;;;;;5033241;28;21009;-77
2022/12/02 10:23:09;;;;;;;76.95;16.10;;;;;;;;;;5036506;28;20460;-77
2022/12/02 10:25:37;;;;;;;75.47;15.97;;;;;;;;;;5036113;28;20213;-77
2022/12/02 10:28:04;;;;;;;76.50;16.23;;;;;;;;;;5036011;28;20546;-77
2022/12/02 10:30:32;;;;;;;75.20;15.83;;;;;;;;;;5035360;28;20462;-77
2022/12/02 10:33:00;;;;;;;80.53;16.80;;;;;;;;;;5036678;28;20587;-76
2022/12/02 10:35:29;;;;;;;76.30;15.70;;;;;;;;;;5036062;28;20452;-76
2022/12/02 10:37:56;;;;;;;76.50;15.90;;;;;;;;;;5035532;28;20301;-76
2022/12/02 10:40:24;;;;;;;76.88;14.80;;;;;;;;;;5034293;28;20584;-76
2022/12/02 10:43:06;;;;;;;76.77;15.80;;;;;;;;;;5034915;28;20214;-76
2022/12/02 10:45:34;;;;;;;74.93;15.43;;;;;;;;;;5034973;28;20448;-77
2022/12/02 10:48:12;;;;;;;74.32;14.43;;;;;;;;;;5034622;28;20209;-76
2022/12/02 10:50:40;;;;;;;74.10;15.23;;;;;;;;;;5033713;28;20226;-76
2022/12/02 10:53:12;;;;;;;77.60;15.73;;;;;;;;;;5034503;28;20499;-76
2022/12/02 10:55:39;;;;;;;76.32;16.00;;;;;;;;;;5034324;28;20252;-75
2022/12/02 10:58:06;;;;;;;72.75;15.38;;;;;;;;;;5034168;28;20209;-76
2022/12/02 11:00:34;;;;;;;76.60;17.88;;;;;;;;;;5033193;28;20268;-75
2022/12/02 11:03:04;;;;;;;71.47;13.60;;;;;;;;;;5034127;28;20256;-75
2022/12/02 11:05:32;;;;;;;77.43;17.23;;;;;;;;;;5034054;28;20542;-75
2022/12/02 11:08:02;;;;;;;76.68;15.48;;;;;;;;;;5033961;28;20259;-75
2022/12/02 11:10:33;;;;;;;73.88;16.02;;;;;;;;;;5033210;28;20316;-75
2022/12/02 11:13:02;;;;;;;74.65;14.43;;;;;;;;;;5033928;28;20302;-75
2022/12/02 11:15:34;;;;;;;73.05;14.18;;;;;;;;;;5034084;28;20552;-75
2022/12/02 11:18:02;;;;;;;71.85;13.85;;;;;;;;;;5034148;28;20316;-75
2022/12/02 11:20:34;;;;;;;71.32;13.70;;;;;;;;;;5032933;28;20786;-75
2022/12/02 11:23:22;;;;;;;70.60;14.07;;;;;;;;;;5033842;28;20694;-75
2022/12/02 11:26:00;;;;;;;70.95;12.82;;;;;;;;;;5033681;28;20483;-75
2022/12/02 11:28:39;;;;;;;71.72;14.48;;;;;;;;;;5033437;28;20308;-74
2022/12/02 11:31:20;;;;;;;69.67;12.87;;;;;;;;;;5033517;28;20686;-75
2022/12/02 11:34:00;;;;;;;69.78;12.25;;;;;;;;;;5032904;28;20536;-75
2022/12/02 11:36:29;;;;;;;69.32;12.13;;;;;;;;;;5033739;28;20217;-74
2022/12/02 11:39:00;;;;;;;67.93;11.67;;;;;;;;;;5032699;28;20232;-75
2022/12/02 11:41:30;;;;;;;73.37;15.40;;;;;;;;;;5033602;28;20823;-74
2022/12/02 11:44:18;;;;;;;69.00;11.93;;;;;;;;;;5033340;28;20552;-75
2022/12/02 11:46:47;;;;;;;72.80;14.65;;;;;;;;;;5033704;28;20190;-75
2022/12/02 11:49:23;;;;;;;75.47;14.68;;;;;;;;;;5032328;28;20287;-74
2022/12/02 11:51:50;;;;;;;74.55;14.10;;;;;;;;;;5033260;28;20308;-75
2022/12/02 11:54:18;;;;;;;69.65;13.18;;;;;;;;;;5033227;28;20215;-75
2022/12/02 11:56:47;;;;;;;69.88;11.63;;;;;;;;;;5033140;28;20206;-75
2022/12/02 11:59:21;;;;;;;68.87;11.80;;;;;;;;;;5032062;28;20745;-75
2022/12/02 12:01:48;;;;;;;67.72;10.95;;;;;;;;;;5033195;28;20491;-75
2022/12/02 12:04:23;;;;;;;69.33;12.63;;;;;;;;;;5033076;28;20239;-74
2022/12/02 12:06:54;;;;;;;67.97;11.83;;;;;;;;;;5032996;28;20449;-75
2022/12/02 12:09:21;;;;;;;67.43;10.65;;;;;;;;;;5031916;28;20483;-74
2022/12/02 12:12:03;;;;;;;70.90;12.40;;;;;;;;;;5033099;28;20278;-75
2022/12/02 12:14:32;;;;;;;66.75;10.52;;;;;;;;;;5032923;28;20777;-75
2022/12/02 12:17:14;;;;;;;68.68;10.45;;;;;;;;;;5031906;28;20696;-74
2022/12/02 12:19:41;;;;;;;66.57;10.98;;;;;;;;;;5031587;28;20236;-74
2022/12/02 12:22:23;;;;;;;67.05;11.68;;;;;;;;;;5031919;28;20213;-75
2022/12/02 12:24:50;;;;;;;70.47;12.40;;;;;;;;;;5032474;28;20245;-75
2022/12/02 12:27:34;;;;;;;74.87;12.13;;;;;;;;;;5032478;28;20296;-74
2022/12/02 12:30:04;;;;;;;69.40;11.60;;;;;;;;;;5031562;28;20468;-74
2022/12/02 12:32:32;;;;;;;68.95;12.15;;;;;;;;;;5032204;28;20523;-74
2022/12/02 12:34:59;;;;;;;71.80;13.53;;;;;;;;;;5032311;28;20237;-74
2022/12/02 12:37:26;;;;;;;70.25;11.77;;;;;;;;;;5031298;28;20910;-75
2022/12/02 12:39:53;;;;;;;66.37;10.60;;;;;;;;;;5030522;28;20316;-74
2022/12/02 12:42:20;;;;;;;67.07;10.82;;;;;;;;;;5031196;28;20932;-74
2022/12/02 12:44:47;;;;;;;67.63;10.45;;;;;;;;;;5031660;28;20296;-74
2022/12/02 12:47:16;;;;;;;68.70;11.17;;;;;;;;;;5032421;28;20206;-74
2022/12/02 12:49:43;;;;;;;67.90;12.07;;;;;;;;;;5031265;28;20476;-75
2022/12/02 12:52:10;;;;;;;68.18;11.18;;;;;;;;;;5032191;28;20460;-74
2022/12/02 12:54:37;;;;;;;72.87;13.27;;;;;;;;;;5032148;28;20296;-75
2022/12/02 12:57:04;;;;;;;69.28;12.73;;;;;;;;;;5032033;28;20532;-74
2022/12/02 12:59:32;;;;;;;69.27;12.20;;;;;;;;;;5031047;28;20231;-74
2022/12/02 13:01:59;;;;;;;73.10;13.82;;;;;;;;;;5032181;28;20459;-74
2022/12/02 13:04:27;;;;;;;70.32;11.82;;;;;;;;;;5032075;28;20308;-73
2022/12/02 13:06:54;;;;;;;76.38;14.77;;;;;;;;;;5032064;28;20217;-74
2022/12/02 13:09:22;;;;;;;75.65;14.55;;;;;;;;;;5031137;28;20292;-75
2022/12/02 13:11:49;;;;;;;77.63;15.25;;;;;;;;;;5031759;28;20291;-75
2022/12/02 13:14:16;;;;;;;70.13;13.13;;;;;;;;;;5031857;28;20743;-75
2022/12/02 13:16:43;;;;;;;71.07;12.90;;;;;;;;;;5032024;28;20646;-75
2022/12/02 13:19:10;;;;;;;70.25;11.43;;;;;;;;;;5030907;28;21031;-74
2022/12/02 13:21:39;;;;;;;71.47;12.48;;;;;;;;;;5031632;28;20236;-74
2022/12/02 13:24:06;;;;;;;71.70;13.50;;;;;;;;;;5031755;28;20220;-74
2022/12/02 13:26:33;;;;;;;78.10;14.68;;;;;;;;;;5032054;28;20209;-75
2022/12/02 13:29:00;;;;;;;70.32;13.13;;;;;;;;;;5031043;28;20261;-75
2022/12/02 13:31:27;;;;;;;70.10;12.23;;;;;;;;;;5032029;28;20313;-74
2022/12/02 13:33:54;;;;;;;68.03;10.95;;;;;;;;;;5031788;28;20285;-75
2022/12/02 13:36:22;;;;;;;68.65;11.75;;;;;;;;;;5031720;28;20643;-74
2022/12/02 13:38:50;;;;;;;73.53;14.63;;;;;;;;;;5030811;28;20371;-73
2022/12/02 13:41:17;;;;;;;68.78;11.48;;;;;;;;;;5031437;28;20340;-74
2022/12/02 13:43:46;;;;;;;69.30;11.65;;;;;;;;;;5031746;28;20216;-75
2022/12/02 13:46:13;;;;;;;68.65;11.88;;;;;;;;;;5031616;28;20313;-74
2022/12/02 13:48:40;;;;;;;98.70;30.65;;;;;;;;;;5030715;28;20249;-74
2022/12/02 13:51:08;;;;;;;70.55;12.43;;;;;;;;;;5031552;28;20229;-74
2022/12/02 13:53:35;;;;;;;85.63;26.10;;;;;;;;;;5031402;28;20664;-74
2022/12/02 13:56:03;;;;;;;80.63;24.73;;;;;;;;;;5033167;28;21000;-74
2022/12/02 13:58:30;;;;;;;70.47;14.07;;;;;;;;;;5035097;28;20645;-74
2022/12/02 14:00:58;;;;;;;67.70;10.75;;;;;;;;;;5035088;28;20229;-74
2022/12/02 14:03:25;;;;;;;67.57;11.90;;;;;;;;;;5035279;28;20268;-74
2022/12/02 14:05:52;;;;;;;72.20;10.88;;;;;;;;;;5035199;28;20245;-74
2022/12/02 14:08:19;;;;;;;69.70;13.30;;;;;;;;;;5034962;28;20224;-74
2022/12/02 14:10:46;;;;;;;72.85;12.88;;;;;;;;;;5034513;28;20898;-74
2022/12/02 14:13:15;;;;;;;69.68;12.25;;;;;;;;;;5035457;28;20213;-74
2022/12/02 14:15:42;;;;;;;67.68;11.43;;;;;;;;;;5035091;28;20652;-73
2022/12/02 14:18:09;;;;;;;69.72;11.30;;;;;;;;;;5034979;28;20619;-74
2022/12/02 14:20:36;;;;;;;69.05;10.85;;;;;;;;;;5033983;28;20234;-74
2022/12/02 14:23:03;;;;;;;69.10;11.70;;;;;;;;;;5035117;28;20311;-74
2022/12/02 14:25:30;;;;;;;67.78;11.02;;;;;;;;;;5035018;28;20914;-73